Time;durP1;ratioP1;P1;durP2;ratioP2;P2;SDS_P1;SDS_P2;PMS_P1;PMS_P2;Temp;Humidity;BMP_temperature;BMP_pressure;BME280_temperature;BME280_humidity;BME280_pressure;Samples;Min_cycle;Max_cycle;Signal;HPM_P1;HPM_P2
2023/08/24 00:01:04;;;;;;;11.73;10.10;;;27.40;72.90;;;;;;5002990;28;20207;-61
2023/08/24 00:03:32;;;;;;;12.90;9.17;;;27.40;73.00;;;;;;5003044;28;20214;-61
2023/08/24 00:05:59;;;;;;;13.40;8.60;;;27.40;73.00;;;;;;5003335;28;20204;-62
2023/08/24 00:08:27;;;;;;;11.53;7.97;;;27.30;73.10;;;;;;4999568;28;20230;-61
2023/08/24 00:10:54;;;;;;;11.47;8.23;;;27.20;73.00;;;;;;5002119;28;20209;-61
2023/08/24 00:13:21;;;;;;;10.87;8.77;;;27.20;72.90;;;;;;5000946;28;20631;-61
2023/08/24 00:15:48;;;;;;;11.73;9.20;;;27.10;73.00;;;;;;5009063;28;20645;-61
2023/08/24 00:18:18;;;;;;;13.57;8.37;;;27.00;73.30;;;;;;5003763;28;20224;-61
2023/08/24 00:20:45;;;;;;;11.20;8.93;;;27.00;73.60;;;;;;5003797;28;20211;-61
2023/08/24 00:23:13;;;;;;;11.70;10.50;;;26.90;73.60;;;;;;5001261;28;20664;-61
2023/08/24 00:25:42;;;;;;;10.63;9.43;;;26.80;73.90;;;;;;5005609;28;20214;-61
2023/08/24 00:28:10;;;;;;;16.37;9.80;;;26.80;75.00;;;;;;5002853;28;20712;-61
2023/08/24 00:30:37;;;;;;;10.23;9.27;;;26.70;74.60;;;;;;5019252;28;20226;-61
2023/08/24 00:33:04;;;;;;;11.63;8.93;;;26.70;74.90;;;;;;5011017;28;20262;-61
2023/08/24 00:35:31;;;;;;;10.80;8.83;;;26.60;75.00;;;;;;5006960;28;20212;-61
2023/08/24 00:37:59;;;;;;;11.67;9.37;;;26.60;75.10;;;;;;5001765;28;20212;-61
2023/08/24 00:40:26;;;;;;;16.03;9.57;;;26.50;75.10;;;;;;4999101;28;20552;-61
2023/08/24 00:42:53;;;;;;;12.03;8.63;;;26.50;75.30;;;;;;5004635;28;20259;-61
2023/08/24 00:45:21;;;;;;;11.33;8.70;;;26.50;75.50;;;;;;5002114;28;20263;-61
2023/08/24 00:47:48;;;;;;;11.70;9.17;;;26.50;75.70;;;;;;5002486;28;20634;-61
2023/08/24 00:50:17;;;;;;;11.03;9.90;;;26.40;75.70;;;;;;5001005;28;20286;-61
2023/08/24 00:52:47;;;;;;;10.93;9.60;;;26.40;75.90;;;;;;5009403;28;20188;-61
2023/08/24 00:55:14;;;;;;;11.27;8.83;;;26.30;76.10;;;;;;5005737;28;20254;-61
2023/08/24 00:57:41;;;;;;;10.80;8.73;;;26.30;76.30;;;;;;5004311;28;20299;-61
2023/08/24 01:00:10;;;;;;;9.80;8.90;;;26.20;76.50;;;;;;5012381;28;20227;-61
2023/08/24 01:02:38;;;;;;;11.17;9.83;;;26.20;76.80;;;;;;5007930;28;20657;-61
2023/08/24 01:05:06;;;;;;;10.00;8.97;;;26.20;77.00;;;;;;5016883;28;20205;-61
2023/08/24 01:07:36;;;;;;;15.90;10.80;;;26.10;77.30;;;;;;5003838;28;20617;-61
2023/08/24 01:10:06;;;;;;;15.37;11.67;;;26.10;77.80;;;;;;4998982;28;20609;-61
2023/08/24 01:12:44;;;;;;;19.50;11.37;;;26.10;78.30;;;;;;5010433;28;20231;-61
2023/08/24 01:15:45;;;;;;;18.70;11.57;;;26.00;78.60;;;;;;5009983;28;20254;-61
2023/08/24 01:18:16;;;;;;;18.10;10.60;;;26.00;79.00;;;;;;4992943;28;20652;-61
2023/08/24 01:20:44;;;;;;;10.67;8.93;;;26.00;78.70;;;;;;5007335;28;20218;-61
2023/08/24 01:23:17;;;;;;;11.93;9.50;;;26.00;78.50;;;;;;5004031;28;20199;-61
2023/08/24 01:25:59;;;;;;;13.37;9.40;;;26.00;78.30;;;;;;4988617;28;20629;-61
2023/08/24 01:28:27;;;;;;;22.27;10.13;;;26.00;78.20;;;;;;5008431;28;20211;-61
2023/08/24 01:30:54;;;;;;;16.93;9.90;;;25.90;78.30;;;;;;4999758;28;20204;-61
2023/08/24 01:33:21;;;;;;;12.53;9.33;;;25.90;78.40;;;;;;4999972;28;20210;-61
2023/08/24 01:35:48;;;;;;;14.00;10.20;;;25.90;78.50;;;;;;5005921;28;20213;-60
2023/08/24 01:38:16;;;;;;;13.87;10.80;;;25.90;78.70;;;;;;5022726;28;20203;-61
2023/08/24 01:40:56;;;;;;;11.40;10.10;;;25.90;78.80;;;;;;5004474;28;20533;-61
2023/08/24 01:43:29;;;;;;;12.50;11.20;;;25.90;79.10;;;;;;5007405;28;20676;-61
2023/08/24 01:46:12;;;;;;;12.17;10.17;;;25.80;79.00;;;;;;5003530;28;20210;-61
2023/08/24 01:48:40;;;;;;;13.47;11.13;;;25.80;79.00;;;;;;5007262;28;20202;-61
2023/08/24 01:51:10;;;;;;;10.77;9.60;;;25.70;79.00;;;;;;5011527;28;20614;-61
2023/08/24 01:53:39;;;;;;;11.60;10.40;;;25.70;79.20;;;;;;5009220;28;20206;-61
2023/08/24 01:56:17;;;;;;;11.93;10.73;;;25.60;79.40;;;;;;5004205;28;20196;-61
2023/08/24 01:58:44;;;;;;;13.17;10.50;;;25.60;79.70;;;;;;5005372;28;20559;-61
2023/08/24 02:01:12;;;;;;;14.10;10.33;;;25.60;79.70;;;;;;5005311;28;20509;-61
2023/08/24 02:03:40;;;;;;;13.20;10.07;;;25.60;79.50;;;;;;5008760;28;20511;-61
2023/08/24 02:06:08;;;;;;;12.13;9.70;;;25.60;79.00;;;;;;5004505;28;20203;-61
2023/08/24 02:08:35;;;;;;;11.43;10.00;;;25.60;78.80;;;;;;5005489;28;20263;-61
2023/08/24 02:11:02;;;;;;;14.50;10.17;;;25.60;78.60;;;;;;5006627;28;20613;-61
2023/08/24 02:13:32;;;;;;;13.00;9.40;;;25.50;78.40;;;;;;5006858;28;20269;-61
2023/08/24 02:16:04;;;;;;;15.97;9.67;;;25.60;78.40;;;;;;5003075;28;20219;-61
2023/08/24 02:18:31;;;;;;;12.73;9.87;;;25.50;78.40;;;;;;5003230;28;20223;-61
2023/08/24 02:20:58;;;;;;;18.93;10.17;;;25.50;78.50;;;;;;5022209;28;20209;-61
2023/08/24 02:23:25;;;;;;;13.37;9.43;;;25.50;78.70;;;;;;5002356;28;20201;-61
2023/08/24 02:25:55;;;;;;;12.53;9.73;;;25.50;78.90;;;;;;5007460;28;20547;-61
2023/08/24 02:28:22;;;;;;;14.43;10.60;;;25.40;79.20;;;;;;5007177;28;20200;-61
2023/08/24 02:30:50;;;;;;;12.87;9.10;;;25.40;79.40;;;;;;5017678;28;20626;-61
2023/08/24 02:33:17;;;;;;;14.53;10.53;;;25.40;79.60;;;;;;5008654;28;20231;-61
2023/08/24 02:35:46;;;;;;;13.60;10.67;;;25.40;79.70;;;;;;5005236;28;20222;-61
2023/08/24 02:38:13;;;;;;;12.37;10.40;;;25.40;79.80;;;;;;5005936;28;20209;-61
2023/08/24 02:40:40;;;;;;;14.57;11.77;;;25.40;79.70;;;;;;5008721;28;20269;-61
2023/08/24 02:43:08;;;;;;;10.87;9.87;;;25.40;79.70;;;;;;5001615;28;20239;-61
2023/08/24 02:45:35;;;;;;;15.60;11.30;;;25.30;79.90;;;;;;5002484;28;20214;-61
2023/08/24 02:48:02;;;;;;;15.57;13.13;;;25.30;80.10;;;;;;5004779;28;20208;-61
2023/08/24 02:50:30;;;;;;;19.90;11.77;;;25.20;80.30;;;;;;5023212;28;20199;-61
2023/08/24 02:52:58;;;;;;;17.67;12.40;;;25.20;80.60;;;;;;5021953;28;20225;-61
2023/08/24 02:55:25;;;;;;;14.13;12.53;;;25.20;80.90;;;;;;5014942;28;20259;-61
2023/08/24 02:57:52;;;;;;;13.97;11.53;;;25.20;81.10;;;;;;5019297;28;20204;-61
2023/08/24 03:00:19;;;;;;;14.47;11.40;;;25.20;81.30;;;;;;5014657;28;20257;-61
2023/08/24 03:02:46;;;;;;;15.27;12.17;;;25.20;81.30;;;;;;5010253;28;20210;-61
2023/08/24 03:05:14;;;;;;;16.97;12.33;;;25.20;81.30;;;;;;5007136;28;20258;-61
2023/08/24 03:07:41;;;;;;;16.83;12.20;;;25.20;81.50;;;;;;5004444;28;20595;-61
2023/08/24 03:10:09;;;;;;;11.90;10.70;;;25.20;81.60;;;;;;5011983;28;20306;-62
2023/08/24 03:12:36;;;;;;;15.23;10.80;;;25.20;81.80;;;;;;5003007;28;20195;-61
2023/08/24 03:15:04;;;;;;;11.67;10.57;;;25.10;81.80;;;;;;5020618;28;20240;-61
2023/08/24 03:17:32;;;;;;;12.33;10.60;;;25.10;81.80;;;;;;5009540;28;20266;-61
2023/08/24 03:19:59;;;;;;;13.57;10.50;;;25.10;81.90;;;;;;5004828;28;20228;-61
2023/08/24 03:22:26;;;;;;;16.73;9.73;;;25.10;82.10;;;;;;5005266;28;20233;-61
2023/08/24 03:24:53;;;;;;;13.67;10.57;;;25.10;82.10;;;;;;5019070;28;20287;-60
2023/08/24 03:27:20;;;;;;;11.67;10.53;;;25.10;82.20;;;;;;5008833;28;20629;-60
2023/08/24 03:29:47;;;;;;;18.50;11.17;;;25.10;82.40;;;;;;5018392;28;20227;-60
2023/08/24 03:32:15;;;;;;;13.43;10.47;;;25.10;82.60;;;;;;5004788;28;20650;-61
2023/08/24 03:34:42;;;;;;;14.70;10.47;;;25.00;82.50;;;;;;5005352;28;20283;-61
2023/08/24 03:37:09;;;;;;;14.20;10.37;;;25.10;82.40;;;;;;5019672;28;20296;-61
2023/08/24 03:39:38;;;;;;;14.30;11.63;;;25.00;82.30;;;;;;5005903;28;20222;-61
2023/08/24 03:42:05;;;;;;;16.47;10.90;;;25.00;82.30;;;;;;5021147;28;20502;-61
2023/08/24 03:44:34;;;;;;;12.60;10.60;;;25.00;82.40;;;;;;5012478;28;20827;-61
2023/08/24 03:47:01;;;;;;;15.33;11.80;;;25.00;82.30;;;;;;5013131;28;20207;-61
2023/08/24 03:49:29;;;;;;;12.20;10.93;;;25.00;82.40;;;;;;5019164;28;20672;-61
2023/08/24 03:51:56;;;;;;;17.47;12.50;;;25.00;82.50;;;;;;5005092;28;20206;-61
2023/08/24 03:54:23;;;;;;;14.93;12.13;;;25.00;82.50;;;;;;5002554;28;20215;-61
2023/08/24 03:56:50;;;;;;;12.97;11.77;;;25.00;82.60;;;;;;5006691;28;20300;-61
2023/08/24 03:59:17;;;;;;;15.73;12.87;;;25.00;82.70;;;;;;5012900;28;20232;-61
2023/08/24 04:01:44;;;;;;;12.73;11.53;;;25.00;82.80;;;;;;5026594;28;20634;-61
2023/08/24 04:04:11;;;;;;;17.43;10.97;;;25.00;82.80;;;;;;5000057;28;20200;-61
2023/08/24 04:06:38;;;;;;;16.30;12.43;;;25.00;82.70;;;;;;5007148;28;20204;-61
2023/08/24 04:09:06;;;;;;;13.57;10.97;;;25.00;82.70;;;;;;4999087;28;20199;-61
2023/08/24 04:11:34;;;;;;;15.40;10.97;;;25.00;82.40;;;;;;4998836;28;20225;-61
2023/08/24 04:14:01;;;;;;;12.00;10.90;;;24.90;82.10;;;;;;4995309;28;20685;-61
2023/08/24 04:16:28;;;;;;;12.03;10.53;;;24.90;82.30;;;;;;4998593;28;20207;-61
2023/08/24 04:18:55;;;;;;;14.80;9.37;;;24.90;82.30;;;;;;4999317;28;20215;-61
2023/08/24 04:21:22;;;;;;;11.07;8.83;;;24.90;81.90;;;;;;4998269;28;20208;-61
2023/08/24 04:23:49;;;;;;;12.07;9.83;;;25.00;81.30;;;;;;5004464;28;20212;-61
2023/08/24 04:26:16;;;;;;;11.63;10.43;;;25.00;81.00;;;;;;5007770;28;20196;-61
2023/08/24 04:28:43;;;;;;;11.03;10.03;;;25.00;80.80;;;;;;5000209;28;20513;-61
2023/08/24 04:31:10;;;;;;;13.87;8.97;;;25.00;80.00;;;;;;4999796;28;20288;-61
2023/08/24 04:33:37;;;;;;;13.57;8.60;;;25.00;79.70;;;;;;5000398;28;20203;-61
2023/08/24 04:36:04;;;;;;;12.77;8.07;;;24.90;79.40;;;;;;5002222;28;20289;-61
2023/08/24 04:38:31;;;;;;;11.60;7.37;;;24.90;78.90;;;;;;5000853;28;20215;-61
2023/08/24 04:40:58;;;;;;;11.57;8.27;;;25.00;78.40;;;;;;5003473;28;20611;-61
2023/08/24 04:43:25;;;;;;;7.80;6.67;;;25.00;77.90;;;;;;5003708;28;20230;-61
2023/08/24 04:45:55;;;;;;;8.83;5.87;;;25.00;77.60;;;;;;5002757;28;20690;-61
2023/08/24 04:48:23;;;;;;;8.00;6.90;;;25.10;77.50;;;;;;5019837;28;20217;-61
2023/08/24 04:50:50;;;;;;;11.07;6.03;;;25.10;77.10;;;;;;5002396;28;20213;-61
2023/08/24 04:53:19;;;;;;;7.03;5.97;;;25.10;76.50;;;;;;5000914;28;20657;-61
2023/08/24 04:55:46;;;;;;;7.43;6.73;;;25.20;76.40;;;;;;5001419;28;20192;-61
2023/08/24 04:58:13;;;;;;;8.13;6.80;;;25.20;76.30;;;;;;5006362;28;20327;-61
2023/08/24 05:00:40;;;;;;;9.17;6.20;;;25.20;76.30;;;;;;5021722;28;20247;-61
2023/08/24 05:03:08;;;;;;;10.20;6.80;;;25.30;76.40;;;;;;5004522;28;20648;-61
2023/08/24 05:05:37;;;;;;;7.63;6.93;;;25.30;76.50;;;;;;5002983;28;20203;-61
2023/08/24 05:08:06;;;;;;;8.47;6.87;;;25.30;76.50;;;;;;5003493;28;20204;-61
2023/08/24 05:10:34;;;;;;;6.83;6.10;;;25.30;76.50;;;;;;5004517;28;20200;-61
2023/08/24 05:13:01;;;;;;;7.40;5.67;;;25.30;76.20;;;;;;5002717;28;20223;-60
2023/08/24 05:15:28;;;;;;;12.27;6.67;;;25.40;75.80;;;;;;5002016;28;20214;-60
2023/08/24 05:17:56;;;;;;;8.37;6.50;;;25.40;75.60;;;;;;5007011;28;20212;-60
2023/08/24 05:20:23;;;;;;;7.57;5.80;;;25.40;75.70;;;;;;5001598;28;20214;-61
2023/08/24 05:22:50;;;;;;;6.00;5.50;;;25.50;75.90;;;;;;5001067;28;20358;-61
2023/08/24 05:25:17;;;;;;;6.43;5.83;;;25.50;75.70;;;;;;5003031;28;20204;-61
2023/08/24 05:27:44;;;;;;;8.23;6.30;;;25.50;75.50;;;;;;4998232;28;20646;-61
2023/08/24 05:30:12;;;;;;;7.10;6.50;;;25.60;75.20;;;;;;5000846;28;20214;-61
2023/08/24 05:32:39;;;;;;;8.33;5.97;;;25.60;74.80;;;;;;5002254;28;20219;-61
2023/08/24 05:35:06;;;;;;;7.70;6.07;;;25.60;74.30;;;;;;4996668;28;20200;-61
2023/08/24 05:37:34;;;;;;;6.43;5.73;;;25.70;74.60;;;;;;5001249;28;20208;-61
2023/08/24 05:40:02;;;;;;;6.07;5.17;;;25.70;73.60;;;;;;5001256;28;20224;-61
2023/08/24 05:42:31;;;;;;;7.07;5.20;;;25.80;73.50;;;;;;4998524;28;20659;-61
2023/08/24 05:44:57;;;;;;;9.43;6.37;;;25.90;73.30;;;;;;4997914;28;20266;-61
2023/08/24 05:47:24;;;;;;;6.27;5.67;;;26.00;73.10;;;;;;5006585;28;20223;-61
2023/08/24 05:49:52;;;;;;;7.23;6.03;;;26.10;72.80;;;;;;5001624;28;20223;-61
2023/08/24 05:52:19;;;;;;;6.40;5.90;;;26.20;72.60;;;;;;5000871;28;20205;-61
2023/08/24 05:54:46;;;;;;;8.70;6.00;;;26.30;72.50;;;;;;5001862;28;20287;-61
2023/08/24 05:57:13;;;;;;;6.07;5.40;;;26.40;72.50;;;;;;5004867;28;20211;-61
2023/08/24 05:59:40;;;;;;;8.47;5.97;;;26.60;72.10;;;;;;4999884;28;20311;-60
2023/08/24 06:02:07;;;;;;;6.40;5.33;;;26.70;71.50;;;;;;5004172;28;20213;-60
2023/08/24 06:04:34;;;;;;;7.77;5.70;;;26.80;71.70;;;;;;5003881;28;20269;-60
2023/08/24 06:07:01;;;;;;;8.10;6.17;;;26.90;71.80;;;;;;5006295;28;20629;-61
2023/08/24 06:09:28;;;;;;;9.17;6.13;;;27.00;71.40;;;;;;5007266;28;20196;-61
2023/08/24 06:11:54;;;;;;;9.20;6.97;;;27.20;71.40;;;;;;5002958;28;20200;-61
2023/08/24 06:14:22;;;;;;;6.07;5.47;;;27.30;70.70;;;;;;5003076;28;20240;-61
2023/08/24 06:16:49;;;;;;;8.40;7.60;;;27.50;70.40;;;;;;5006635;28;20246;-61
2023/08/24 06:19:16;;;;;;;17.20;13.93;;;27.60;69.70;;;;;;5004356;28;20664;-61
2023/08/24 06:21:43;;;;;;;26.63;22.17;;;27.80;69.60;;;;;;5003841;28;20625;-61
2023/08/24 06:24:10;;;;;;;30.67;26.43;;;27.90;69.40;;;;;;5007999;28;20224;-61
2023/08/24 06:26:37;;;;;;;35.70;31.47;;;28.10;69.20;;;;;;5004985;28;20197;-61
2023/08/24 06:29:03;;;;;;;25.63;20.43;;;28.20;68.60;;;;;;5006663;28;20299;-61
2023/08/24 06:31:31;;;;;;;20.17;18.03;;;28.40;67.80;;;;;;5005133;28;20239;-61
2023/08/24 06:33:58;;;;;;;40.30;34.37;;;28.50;66.90;;;;;;5004110;28;20255;-61
2023/08/24 06:36:25;;;;;;;48.83;42.43;;;28.60;66.50;;;;;;5004588;28;20208;-62
2023/08/24 06:38:52;;;;;;;48.20;41.37;;;28.70;66.10;;;;;;5006684;28;20254;-61
2023/08/24 06:41:20;;;;;;;46.30;36.97;;;28.80;66.70;;;;;;5005349;28;20873;-61
2023/08/24 06:43:46;;;;;;;39.80;35.30;;;28.90;66.00;;;;;;5005855;28;20208;-61
2023/08/24 06:46:14;;;;;;;27.90;24.90;;;29.00;66.20;;;;;;5004255;28;20188;-61
2023/08/24 06:48:45;;;;;;;16.30;14.73;;;29.10;66.10;;;;;;5004517;28;20262;-61
2023/08/24 06:51:12;;;;;;;13.27;11.17;;;29.20;65.70;;;;;;5007095;28;20207;-61
2023/08/24 06:53:39;;;;;;;7.73;6.93;;;29.30;65.40;;;;;;5009201;28;20581;-61
2023/08/24 06:56:06;;;;;;;13.70;7.17;;;29.40;65.20;;;;;;5004086;28;20227;-61
2023/08/24 06:58:33;;;;;;;8.10;6.30;;;29.60;64.80;;;;;;5006848;28;20287;-61
2023/08/24 07:01:00;;;;;;;10.80;7.20;;;29.60;64.50;;;;;;5002538;28;20216;-61
2023/08/24 07:03:27;;;;;;;8.70;6.87;;;29.70;64.10;;;;;;5005328;28;20211;-61
2023/08/24 07:05:54;;;;;;;10.03;6.10;;;29.90;63.80;;;;;;5010100;28;20210;-61
2023/08/24 07:08:21;;;;;;;18.67;6.30;;;30.00;63.40;;;;;;5007021;28;20278;-61
2023/08/24 07:10:48;;;;;;;11.67;6.00;;;30.10;63.20;;;;;;4999005;28;20275;-62
2023/08/24 07:13:15;;;;;;;9.30;6.27;;;30.30;62.70;;;;;;5000158;28;20200;-61
2023/08/24 07:15:42;;;;;;;7.63;6.80;;;30.40;62.30;;;;;;5003632;28;20232;-61
2023/08/24 07:18:09;;;;;;;8.70;5.93;;;30.50;61.70;;;;;;5000532;28;20210;-61
2023/08/24 07:20:37;;;;;;;9.57;6.60;;;30.60;61.40;;;;;;5001102;28;20323;-61
2023/08/24 07:23:04;;;;;;;10.80;6.53;;;30.80;61.20;;;;;;5000849;28;20320;-61
2023/08/24 07:25:31;;;;;;;13.00;6.17;;;30.80;60.70;;;;;;5003381;28;20205;-61
2023/08/24 07:27:59;;;;;;;7.50;6.70;;;30.90;60.50;;;;;;5003950;28;20227;-62
2023/08/24 07:30:29;;;;;;;8.33;6.43;;;31.00;60.00;;;;;;5002718;28;20203;-60
2023/08/24 07:33:00;;;;;;;8.73;6.73;;;31.10;59.70;;;;;;5000687;28;20216;-61
2023/08/24 07:35:28;;;;;;;10.33;6.33;;;31.20;59.60;;;;;;5006685;28;20290;-61
2023/08/24 07:37:56;;;;;;;10.37;6.27;;;31.30;59.70;;;;;;5002994;28;20203;-61
2023/08/24 07:40:23;;;;;;;9.77;7.17;;;31.30;58.70;;;;;;5001414;28;20212;-61
2023/08/24 07:42:56;;;;;;;9.97;7.37;;;31.40;58.40;;;;;;5004662;28;20200;-60
2023/08/24 07:45:23;;;;;;;12.37;6.73;;;31.50;57.80;;;;;;5007115;28;20265;-61
2023/08/24 07:47:51;;;;;;;7.10;6.40;;;31.60;58.30;;;;;;5004304;28;20192;-61
2023/08/24 07:50:18;;;;;;;7.70;6.60;;;31.70;58.20;;;;;;5000597;28;20208;-61
2023/08/24 07:52:45;;;;;;;11.23;7.10;;;31.80;57.40;;;;;;5006758;28;20238;-61
2023/08/24 07:55:12;;;;;;;9.97;6.43;;;31.90;57.00;;;;;;5007734;28;20711;-61
2023/08/24 07:57:39;;;;;;;7.37;6.70;;;32.10;56.80;;;;;;5021707;28;20215;-61
2023/08/24 08:00:07;;;;;;;15.03;6.80;;;32.30;56.30;;;;;;5000590;28;20303;-61
2023/08/24 08:02:38;;;;;;;8.43;6.60;;;32.50;56.20;;;;;;4998022;28;20622;-61
2023/08/24 08:05:07;;;;;;;7.67;6.97;;;32.70;56.20;;;;;;5000567;28;20275;-61
2023/08/24 08:07:35;;;;;;;8.67;6.87;;;32.90;56.50;;;;;;5005569;28;20204;-61
2023/08/24 08:10:02;;;;;;;8.30;6.60;;;33.00;55.60;;;;;;5000921;28;20285;-61
2023/08/24 08:12:31;;;;;;;12.20;6.87;;;33.20;55.40;;;;;;5004555;28;20528;-61
2023/08/24 08:14:59;;;;;;;7.27;6.50;;;33.30;55.90;;;;;;5003340;28;20243;-61
2023/08/24 08:17:30;;;;;;;12.10;6.77;;;33.50;55.60;;;;;;4999703;28;20205;-61
2023/08/24 08:19:58;;;;;;;7.47;6.72;;;33.60;55.10;;;;;;5004625;28;20204;-61
2023/08/24 08:22:25;;;;;;;8.70;6.90;;;33.80;54.90;;;;;;5003656;28;20204;-61
2023/08/24 08:24:56;;;;;;;9.17;6.87;;;33.90;54.60;;;;;;5002225;28;20211;-61
2023/08/24 08:27:23;;;;;;;11.23;7.17;;;34.10;54.30;;;;;;5002651;28;20223;-61
2023/08/24 08:29:51;;;;;;;8.45;7.38;;;34.20;53.50;;;;;;5002342;28;20274;-61
2023/08/24 08:32:18;;;;;;;7.78;6.40;;;34.30;52.90;;;;;;5005308;28;20263;-61
2023/08/24 08:34:45;;;;;;;9.93;7.15;;;34.40;52.70;;;;;;5007907;28;20207;-61
2023/08/24 08:37:12;;;;;;;10.45;6.90;;;34.40;52.40;;;;;;5002909;28;20188;-61
2023/08/24 08:39:39;;;;;;;6.97;6.28;;;34.40;52.20;;;;;;5001238;28;20684;-61
2023/08/24 08:42:12;;;;;;;10.57;7.20;;;34.40;52.30;;;;;;4995866;28;20224;-61
2023/08/24 08:44:42;;;;;;;10.65;7.55;;;34.50;52.30;;;;;;5003572;28;20265;-61
2023/08/24 08:47:11;;;;;;;9.90;7.82;;;34.60;51.40;;;;;;5000700;28;20196;-61
2023/08/24 08:49:43;;;;;;;12.55;7.78;;;34.70;51.00;;;;;;5006051;28;20192;-61
2023/08/24 08:52:11;;;;;;;9.10;7.40;;;34.70;51.20;;;;;;5001730;28;20574;-61
2023/08/24 08:54:38;;;;;;;8.43;7.47;;;34.90;51.50;;;;;;4999254;28;20223;-61
2023/08/24 08:57:05;;;;;;;9.30;7.25;;;35.00;50.40;;;;;;5008907;28;20525;-62
2023/08/24 08:59:33;;;;;;;9.63;7.13;;;35.10;50.20;;;;;;5003134;28;20220;-60
2023/08/24 09:02:03;;;;;;;10.13;7.03;;;35.30;50.40;;;;;;5001718;28;20311;-59
2023/08/24 09:04:32;;;;;;;9.30;5.93;;;35.50;50.50;;;;;;5002569;28;20207;-61
2023/08/24 09:07:03;;;;;;;9.80;7.88;;;35.60;49.20;;;;;;5003241;28;20573;-61
2023/08/24 09:09:31;;;;;;;8.65;7.50;;;35.70;48.20;;;;;;5001284;28;20291;-60
2023/08/24 09:12:00;;;;;;;8.70;7.30;;;35.60;49.00;;;;;;5004550;28;20212;-61
2023/08/24 09:14:27;;;;;;;7.93;7.22;;;35.70;48.90;;;;;;5007696;28;20254;-61
2023/08/24 09:16:54;;;;;;;8.95;8.00;;;35.70;49.50;;;;;;5000441;28;20208;-61
2023/08/24 09:19:28;;;;;;;8.60;7.68;;;35.80;49.10;;;;;;5000827;28;20201;-61
2023/08/24 09:21:59;;;;;;;8.77;7.65;;;35.80;48.00;;;;;;5002137;28;20221;-61
2023/08/24 09:24:34;;;;;;;9.68;7.43;;;35.80;48.70;;;;;;5003984;28;20192;-60
2023/08/24 09:27:15;;;;;;;9.57;7.68;;;35.90;47.90;;;;;;5003070;28;20214;-59
2023/08/24 09:29:42;;;;;;;13.30;7.55;;;36.00;47.70;;;;;;5004828;28;20192;-60
2023/08/24 09:32:10;;;;;;;8.73;7.70;;;36.10;48.00;;;;;;5007319;28;20216;-60
2023/08/24 09:34:37;;;;;;;9.40;7.40;;;36.30;47.50;;;;;;5007035;28;20649;-62
2023/08/24 09:37:13;;;;;;;8.40;7.55;;;36.40;47.30;;;;;;5009681;28;20200;-61
2023/08/24 09:39:40;;;;;;;8.93;8.02;;;36.60;47.70;;;;;;5005982;28;20210;-60
2023/08/24 09:42:07;;;;;;;10.65;7.13;;;36.70;47.60;;;;;;5002862;28;20237;-61
2023/08/24 09:44:34;;;;;;;13.57;7.72;;;36.80;46.90;;;;;;5002103;28;20984;-61
2023/08/24 09:47:01;;;;;;;7.07;6.47;;;37.00;46.90;;;;;;5009499;28;20200;-61
2023/08/24 09:49:28;;;;;;;6.82;6.32;;;37.10;45.60;;;;;;5009381;28;20658;-61
2023/08/24 09:51:59;;;;;;;15.52;6.53;;;37.20;45.40;;;;;;5005417;28;20223;-60
2023/08/24 09:54:27;;;;;;;6.18;5.68;;;37.30;45.30;;;;;;5007367;28;20197;-61
2023/08/24 09:56:56;;;;;;;5.78;5.20;;;37.30;44.30;;;;;;5002221;28;20232;-61
2023/08/24 09:59:27;;;;;;;6.15;5.35;;;37.40;42.80;;;;;;5006161;28;20207;-61
2023/08/24 10:01:56;;;;;;;6.45;5.85;;;37.40;43.10;;;;;;5003406;28;20220;-61
2023/08/24 10:04:25;;;;;;;8.38;6.13;;;37.40;44.00;;;;;;5011358;28;20204;-60
2023/08/24 10:06:58;;;;;;;6.63;5.85;;;37.50;42.80;;;;;;5004732;28;20271;-61
2023/08/24 10:09:36;;;;;;;6.03;5.53;;;37.40;42.70;;;;;;5005338;28;20199;-61
2023/08/24 10:12:05;;;;;;;8.40;5.85;;;37.50;43.40;;;;;;5007231;28;20207;-60
2023/08/24 10:14:55;;;;;;;7.90;6.22;;;37.50;43.60;;;;;;5002633;28;20244;-60
2023/08/24 10:17:23;;;;;;;7.95;6.03;;;37.70;43.30;;;;;;5005172;28;20196;-61
2023/08/24 10:19:52;;;;;;;10.93;5.72;;;37.80;42.00;;;;;;5000701;28;20232;-61
2023/08/24 10:22:21;;;;;;;6.45;5.30;;;37.80;42.40;;;;;;5001889;28;20220;-61
2023/08/24 10:24:50;;;;;;;7.53;6.22;;;37.90;43.70;;;;;;5008343;28;20518;-61
2023/08/24 10:27:18;;;;;;;6.80;6.10;;;38.00;42.70;;;;;;5002635;28;20200;-60
2023/08/24 10:29:45;;;;;;;7.03;6.43;;;38.00;42.80;;;;;;5003799;28;20215;-61
2023/08/24 10:32:14;;;;;;;6.07;5.50;;;38.10;42.60;;;;;;5001451;28;20578;-60
2023/08/24 10:34:41;;;;;;;6.72;5.97;;;38.20;42.70;;;;;;5003736;28;20212;-61
2023/08/24 10:37:10;;;;;;;6.78;6.07;;;38.30;42.80;;;;;;5003844;28;20251;-61
2023/08/24 10:39:44;;;;;;;7.95;4.90;;;38.40;42.90;;;;;;5008070;28;20215;-61
2023/08/24 10:42:12;;;;;;;7.10;5.10;;;38.50;43.10;;;;;;5001867;28;20214;-61
2023/08/24 10:44:43;;;;;;;6.38;5.15;;;38.60;42.70;;;;;;5007905;28;20207;-62
2023/08/24 10:47:25;;;;;;;6.25;5.60;;;38.70;40.30;;;;;;5007704;28;20230;-62
2023/08/24 10:49:56;;;;;;;5.78;5.10;;;38.70;40.70;;;;;;5006446;28;20200;-61
2023/08/24 10:52:32;;;;;;;7.15;5.28;;;38.70;41.20;;;;;;5003512;28;20298;-61
2023/08/24 10:55:02;;;;;;;8.73;4.97;;;38.80;41.70;;;;;;5008551;28;20203;-60
2023/08/24 10:57:37;;;;;;;6.95;5.03;;;38.90;42.30;;;;;;5009682;28;20204;-60
2023/08/24 11:00:06;;;;;;;5.80;4.90;;;39.00;40.50;;;;;;5006000;28;20230;-61
2023/08/24 11:02:46;;;;;;;7.07;5.10;;;39.00;40.60;;;;;;5003669;28;20216;-60
2023/08/24 11:05:24;;;;;;;5.88;5.32;;;39.10;41.70;;;;;;5002456;28;20234;-61
2023/08/24 11:07:58;;;;;;;6.88;5.00;;;39.10;41.20;;;;;;5006462;28;20824;-61
2023/08/24 11:10:31;;;;;;;6.43;5.63;;;39.20;41.00;;;;;;5004158;28;20211;-61
2023/08/24 11:13:12;;;;;;;7.38;5.05;;;39.30;41.00;;;;;;5002479;28;20202;-61
2023/08/24 11:15:40;;;;;;;8.85;5.13;;;39.30;40.40;;;;;;5003968;28;20235;-60
2023/08/24 11:18:24;;;;;;;5.95;5.45;;;39.40;41.10;;;;;;5002327;28;20289;-61
2023/08/24 11:20:56;;;;;;;6.50;5.95;;;39.50;40.40;;;;;;5019439;28;20532;-61
2023/08/24 11:23:24;;;;;;;5.80;5.30;;;39.40;39.80;;;;;;5007661;28;20192;-60
2023/08/24 11:25:57;;;;;;;6.32;5.53;;;39.40;40.20;;;;;;5006010;28;20274;-61
2023/08/24 11:28:26;;;;;;;6.22;5.63;;;39.40;40.40;;;;;;5001914;28;20197;-61
2023/08/24 11:30:54;;;;;;;6.07;5.47;;;39.40;40.30;;;;;;5001282;28;20201;-60
2023/08/24 11:33:29;;;;;;;6.30;5.70;;;39.50;40.20;;;;;;5001291;28;20502;-60
2023/08/24 11:35:56;;;;;;;9.50;6.13;;;39.60;40.20;;;;;;5000003;28;20199;-61
2023/08/24 11:38:23;;;;;;;9.80;5.78;;;39.70;40.30;;;;;;5000959;28;20200;-60
2023/08/24 11:40:51;;;;;;;8.27;5.22;;;39.70;40.40;;;;;;5001000;28;20205;-60
2023/08/24 11:43:28;;;;;;;9.18;5.10;;;39.70;38.50;;;;;;5000415;28;20204;-61
2023/08/24 11:45:55;;;;;;;6.22;5.72;;;39.60;39.30;;;;;;5004725;28;20196;-60
2023/08/24 11:48:26;;;;;;;6.28;5.68;;;39.60;39.90;;;;;;5002894;28;20207;-60
2023/08/24 11:50:54;;;;;;;8.32;5.43;;;39.50;39.30;;;;;;5002850;28;20262;-61
2023/08/24 11:53:24;;;;;;;6.72;5.20;;;39.50;39.50;;;;;;5007151;28;20290;-61
2023/08/24 11:55:54;;;;;;;5.75;5.25;;;39.50;38.20;;;;;;5004372;28;20192;-59
2023/08/24 11:58:31;;;;;;;5.68;4.97;;;39.40;39.10;;;;;;5000273;28;20219;-58
2023/08/24 12:01:00;;;;;;;7.82;5.25;;;39.40;38.90;;;;;;5002078;28;20201;-58
2023/08/24 12:03:27;;;;;;;12.70;5.15;;;39.30;39.70;;;;;;5001781;28;20226;-58
2023/08/24 12:05:58;;;;;;;5.88;5.15;;;39.30;40.10;;;;;;5003212;28;20667;-58
2023/08/24 12:08:25;;;;;;;7.43;5.50;;;39.30;39.60;;;;;;5010036;28;20279;-58
2023/08/24 12:10:52;;;;;;;7.95;5.20;;;39.40;40.00;;;;;;5003631;28;20196;-58
2023/08/24 12:13:20;;;;;;;5.75;5.25;;;39.40;39.70;;;;;;5002099;28;20235;-58
2023/08/24 12:15:49;;;;;;;6.15;5.38;;;39.50;40.00;;;;;;5000173;28;20203;-58
2023/08/24 12:18:16;;;;;;;10.75;5.97;;;39.60;40.30;;;;;;5003896;28;20224;-58
2023/08/24 12:20:44;;;;;;;7.90;5.35;;;39.70;39.90;;;;;;5004078;28;20207;-58
2023/08/24 12:23:11;;;;;;;8.55;5.82;;;39.80;39.00;;;;;;5004877;28;20310;-58
2023/08/24 12:25:42;;;;;;;6.38;5.70;;;39.70;38.90;;;;;;5001923;28;20200;-58
2023/08/24 12:28:11;;;;;;;6.03;5.50;;;39.70;38.20;;;;;;5000927;28;20211;-54
2023/08/24 12:30:46;;;;;;;6.13;5.47;;;39.60;38.70;;;;;;5005625;28;20305;-58
2023/08/24 12:33:27;;;;;;;8.48;5.47;;;39.50;39.50;;;;;;5002561;28;20200;-58
2023/08/24 12:35:55;;;;;;;7.90;5.15;;;39.40;39.30;;;;;;5003057;28;20866;-58
2023/08/24 12:38:23;;;;;;;5.85;5.35;;;39.50;39.30;;;;;;5007787;28;20212;-60
2023/08/24 12:40:51;;;;;;;7.85;5.18;;;39.50;39.10;;;;;;5004901;28;20208;-58
2023/08/24 12:43:19;;;;;;;5.90;5.32;;;39.60;38.50;;;;;;5003102;28;20251;-59
2023/08/24 12:45:46;;;;;;;5.75;5.25;;;39.50;38.50;;;;;;5006089;28;20207;-58